Portada
METAR-TAF:

METAR-TAF

Aeroports :

Pointe-Noire, Congo

latitud: 04-49S, longitud: 011-54E, altitud: 17 m

Observació

L'informe es va fer fa 25 minuts, a les 09:00 UTC
Vent 6 kt del Sud
Temperatura 25°C
Humitat 83%
Pressió 1017 hPa
Visibilitat: 7000 m
Núvols disperses a una alçada de 1000 ft
Núvols disperses a una alçada de 2600 ft

METAR: FCPP 240900Z 17006KT 7000 SCT010 SCT026 25/22 Q1017 NOSIG

Hora: 10:25 (09:25 UTC)

Pronòstic

L'informe es va fer fa 4 hores i 25 minuts, a les 05:00 UTC
Pronòstic vàlid del 24 a les 06 UTC al 25 a les 06 UTC
Vent 4 kt del Sud-Est
Visibilitat: 7000 m
Núvols disperses a una alçada de 1000 ft
Cel cobert a una alçada de 2000 ft
A partir de les 24 a les 1400 UTC
Vent 8 kt del Sud-Oest
Visibilitat: 8000 m
Escasses núvols a una alçada de 1300 ft
Probabilitat 30%
l' 25 a les 04 UTC al 25 a les 06 UTC
Visibilitat: 4000 m
boirina

TAF: FCPP 240500Z 2406/2506 14004KT 7000 SCT010 OVC020 FM241400 22008KT 8000 FEW013 PROB30 2504/2506 4000 BR

Observacions i pronòstics meteorològics de més de 4000 aeroports (METAR i TAF).

Les estacions disponibles són els punts grocs i vermells al mapa.

Posi el ratolí al punt desitjat per veure el nom de l'estació.

Feu clic per veure les observacions i els pronòstics meteorològics.

Per canviar el mapa: feu clic els botons verds amb una creu de color negre per apropar; al botó verd amb un guió per allunyar la imatge; o en les fletxes verdes per a mapes adjacents.


METAR-TAF: